Flight Track Log - Related Links

Times and Time Zones

All times are in EDT time to prevent confusion due to time zone crossing. See the OPT429 flight status page for this flight to view local times or setup timezone preferences in your user account.

Time Position Orientation Groundspeed Altitude Reporting Facility
EDT Latitude Longitude Course Direction KTS MPH feet Rate Location/Type
Sat 09:12:04 AM 41.5503 -81.5072 189° South 164 189 2,000  Level Cleveland Center
Sat 09:13:11 AM 41.4842 -81.5219 189° South 260 299 4,600 2,430 Climbing Cleveland Center
Sat 09:14:05 AM 41.4472 -81.5803 230° Southwest 279 321 6,900 2,544 Climbing Cleveland Center
Sat 09:15:16 AM 41.4342 -81.6811 260° West 269 310 9,900 2,591 Climbing Cleveland Center
Sat 09:16:17 AM 41.4192 -81.7986 260° West 274 315 12,600 2,439 Climbing Cleveland Center
Sat 09:17:19 AM 41.4253 -81.9044 274° West 285 328 14,900 1,984 Climbing Cleveland Center
Sat 09:18:21 AM 41.4297 -82.0144 273° West 293 337 16,700 1,790 Climbing Cleveland Center
Sat 09:19:23 AM 41.4339 -82.1292 273° West 305 351 18,600 1,694 Climbing Cleveland Center
Sat 09:20:25 AM 41.4356 -82.2436 271° West 308 354 20,200 1,512 Climbing Cleveland Center
Sat 09:21:26 AM 41.4417 -82.3614 274° West 314 361 21,700 1,452 Climbing Cleveland Center
Sat 09:22:29 AM 41.4500 -82.4817 275° West 323 372 23,200 1,403 Climbing Cleveland Center
Sat 09:23:30 AM 41.4569 -82.6317 274° West 337 388 24,600 1,317 Climbing Cleveland Center
Sat 09:24:32 AM 41.4611 -82.7592 273° West 342 394 25,900 1,161 Climbing Cleveland Center
Sat 09:25:34 AM 41.4667 -82.8903 273° West 349 402 27,000 1,113 Climbing Cleveland Center
Sat 09:26:36 AM 41.4708 -83.0217 272° West 353 406 28,200 1,317 Climbing Cleveland Center
Sat 09:27:37 AM 41.4764 -83.1522 273° West 353 406 29,700 1,512 Climbing Cleveland Center
Sat 09:28:39 AM 41.4808 -83.2808 273° West 352 405 31,300 1,452 Climbing Cleveland Center
Sat 09:29:41 AM 41.4853 -83.4097 273° West 348 400 32,700 1,355 Climbing Cleveland Center
Sat 09:30:43 AM 41.4900 -83.5692 272° West 353 406 34,100 1,258 Climbing Cleveland Center
Sat 09:31:45 AM 41.4944 -83.7008 273° West 355 409 35,300 968 Climbing Cleveland Center
Sat 09:32:47 AM 41.4983 -83.8356 272° West 360 414 36,100 871 Climbing Cleveland Center
Sat 09:33:49 AM 41.5025 -83.9703 272° West 361 415 37,100 878 Climbing Cleveland Center
Sat 09:34:50 AM 41.5061 -84.1019 272° West 360 414 37,900 683 Climbing Cleveland Center
Sat 09:35:52 AM 41.5092 -84.2372 272° West 361 415 38,500 629 Climbing Cleveland Center
Sat 09:36:54 AM 41.5119 -84.3811 272° West 361 415 39,200 774 Climbing Cleveland Center
Sat 09:37:56 AM 41.5167 -84.5142 273° West 361 415 40,100 726 Climbing Cleveland Center
Sat 09:38:58 AM 41.5194 -84.6456 272° West 360 414 40,700 532 Climbing Cleveland Center
Sat 09:40:00 AM 41.5222 -84.7714 272° West 346 398 41,200 368 Climbing Cleveland Center
Sat 09:40:52 AM 41.5261 -84.8981 272° West 344 396 41,400 421 Climbing Chicago Center
Sat 09:41:54 AM 41.5283 -85.0272 271° West 348 400 42,000 532 Climbing Chicago Center
Sat 09:42:56 AM 41.5306 -85.1517 271° West 339 390 42,500 293 Climbing Chicago Center
Sat 09:43:57 AM 41.5317 -85.2756 271° West 335 386 42,600 146 Climbing Chicago Center
Sat 09:44:59 AM 41.5350 -85.4008 272° West 335 386 42,800 194 Climbing Chicago Center
Sat 09:46:01 AM 41.5372 -85.5217 271° West 329 379 43,000 97 Climbing Chicago Center
Sat 09:47:03 AM 41.5381 -85.6506 271° West 329 379 43,000  Level Chicago Center
Sat 09:48:04 AM 41.5397 -85.7728 271° West 327 376 43,000  Level Chicago Center
Sat 09:49:06 AM 41.5417 -85.9183 271° West 326 375 43,000  Level Chicago Center
Sat 09:50:08 AM 41.5428 -86.0403 271° West 327 376 43,000  Level Chicago Center
Sat 09:51:10 AM 41.5442 -86.1622 271° West 328 377 43,000  Level Chicago Center
Sat 09:52:12 AM 41.5456 -86.2847 271° West 329 379 43,000  Level Chicago Center
Sat 09:53:14 AM 41.5467 -86.4067 271° West 329 379 43,000  Level Chicago Center
Sat 09:54:16 AM 41.5481 -86.5286 271° West 329 379 43,000  Level Chicago Center
Sat 09:55:18 AM 41.5486 -86.6750 270° West 329 379 43,000  Level Chicago Center
Sat 09:56:19 AM 41.5481 -86.7864 270° West 328 377 43,000  Level Chicago Center
Sat 09:57:21 AM 41.5500 -86.9086 271° West 329 379 43,000  Level Chicago Center
Sat 09:58:23 AM 41.5500 -87.0567 270° West 332 382 43,000  Level Chicago Center
Sat 09:59:25 AM 41.5503 -87.1792 270° West 332 382 43,000  Level Chicago Center
Sat 10:00:27 AM 41.5503 -87.3028 270° West 332 382 43,000  Level Chicago Center
Sat 10:01:29 AM 41.5500 -87.4253 270° West 333 383 43,000  Level Chicago Center
Sat 10:02:31 AM 41.5500 -87.5500 270° West 332 382 43,000  Level Chicago Center
Sat 10:03:33 AM 41.5500 -87.6725 270° West 332 382 43,000  Level Chicago Center
Sat 10:04:35 AM 41.5497 -87.8197 270° West 331 381 43,000  Level Chicago Center
Sat 10:05:37 AM 41.5500 -87.9419 270° West 333 383 43,000  Level Chicago Center
Sat 10:06:39 AM 41.5494 -88.0658 270° West 339 390 43,000  Level Chicago Center
Sat 10:07:41 AM 41.5483 -88.1897 269° West 341 392 43,000  Level Chicago Center
Sat 10:08:43 AM 41.5472 -88.3408 269° West 345 397 43,000  Level Chicago Center
Sat 10:09:45 AM 41.5481 -88.4667 271° West 345 397 43,000  Level Chicago Center
Sat 10:10:47 AM 41.5481 -88.5936 270° West 344 396 43,000  Level Chicago Center
Sat 10:11:49 AM 41.5481 -88.7219 270° West 345 397 43,000  Level Chicago Center
Sat 10:12:51 AM 41.5481 -88.8511 270° West 347 399 43,000  Level Chicago Center
Sat 10:13:53 AM 41.5483 -88.9803 270° West 348 400 43,000  Level Chicago Center
Sat 10:14:55 AM 41.5481 -89.1367 270° West 350 403 43,000  Level Chicago Center
Sat 10:15:57 AM 41.5472 -89.2672 270° West 352 405 43,000  Level Chicago Center
Sat 10:16:59 AM 41.5472 -89.3997 270° West 357 411 43,000  Level Chicago Center
Sat 10:18:01 AM 41.5472 -89.5331 270° West 357 411 43,000  Level Chicago Center
Sat 10:19:03 AM 41.5469 -89.6708 270° West 363 418 43,000  Level Chicago Center
Sat 10:20:05 AM 41.5461 -89.8053 270° West 364 419 43,000  Level Chicago Center
Sat 10:21:07 AM 41.5458 -89.9417 270° West 367 422 43,000  Level Chicago Center
Sat 10:22:09 AM 41.5439 -90.1058 269° West 369 425 43,000  Level Chicago Center
Sat 10:23:11 AM 41.5425 -90.2425 269° West 369 425 43,000  Level Chicago Center
Sat 10:24:13 AM 41.5422 -90.3828 270° West 374 430 43,000  Level Chicago Center
Sat 10:25:15 AM 41.5400 -90.5242 269° West 379 436 43,000  Level Chicago Center
Sat 10:26:17 AM 41.5378 -90.6633 269° West 376 433 43,000  Level Chicago Center
Sat 10:27:19 AM 41.5350 -90.8056 269° West 383 441 43,000  Level Chicago Center
Sat 10:28:21 AM 41.5328 -90.9758 269° West 383 441 43,000  Level Chicago Center
Sat 10:29:23 AM 41.5300 -91.1189 269° West 383 441 43,000  Level Chicago Center
Sat 10:30:25 AM 41.5261 -91.2622 268° West 384 442 43,000  Level Chicago Center
Sat 10:31:27 AM 41.5231 -91.4042 268° West 383 441 43,000  Level Chicago Center
Sat 10:32:29 AM 41.5211 -91.5469 269° West 384 442 43,000  Level Chicago Center
Sat 10:33:31 AM 41.5106 -91.7183 265° West 386 444 43,000  Level Chicago Center
Sat 10:34:33 AM 41.4964 -91.8572 262° West 385 443 43,000  Level Chicago Center
Sat 10:35:35 AM 41.4831 -91.9936 263° West 379 436 43,000  Level Chicago Center
Sat 10:36:37 AM 41.4692 -92.1308 262° West 376 433 43,000  Level Chicago Center
Sat 10:37:39 AM 41.4558 -92.2686 263° West 378 435 43,000  Level Chicago Center
Sat 10:38:41 AM 41.4389 -92.4339 262° West 380 437 43,000  Level Chicago Center
Sat 10:39:43 AM 41.4253 -92.5775 263° West 388 447 43,000  Level Chicago Center
Sat 10:40:42 AM 41.4114 -92.7169 262° West 385 443 43,000  Level Minneapolis Center
Sat 10:41:44 AM 41.3967 -92.8583 262° West 386 444 43,000  Level Minneapolis Center
Sat 10:42:46 AM 41.3819 -93.0008 262° West 388 447 43,000  Level Minneapolis Center
Sat 10:43:48 AM 41.3669 -93.1433 262° West 389 448 43,000  Level Minneapolis Center
Sat 10:44:50 AM 41.3486 -93.3167 262° West 394 453 43,000  Level Minneapolis Center
Sat 10:45:52 AM 41.3322 -93.4617 261° West 396 456 43,000  Level Minneapolis Center
Sat 10:46:54 AM 41.3153 -93.6075 261° West 399 459 43,000  Level Minneapolis Center
Sat 10:47:56 AM 41.3000 -93.7517 262° West 399 459 43,000  Level Minneapolis Center
Sat 10:48:58 AM 41.2844 -93.8958 262° West 399 459 43,000 -387 Level Minneapolis Center
Sat 10:50:00 AM 41.2644 -94.0697 261° West 399 459 42,200 -1,161 Descending Minneapolis Center
Sat 10:51:02 AM 41.2458 -94.2200 261° West 405 466 40,600 -1,742 Descending Minneapolis Center
Sat 10:52:04 AM 41.2292 -94.3681 262° West 407 468 38,600 -1,887 Descending Minneapolis Center
Sat 10:53:06 AM 41.2114 -94.5150 261° West 406 467 36,700 -1,887 Descending Minneapolis Center
Sat 10:54:08 AM 41.1942 -94.6742 262° West 426 490 34,700 -1,935 Descending Minneapolis Center
Sat 10:55:10 AM 41.1733 -94.8342 260° West 436 502 32,700 -2,129 Descending Minneapolis Center
Sat 10:56:12 AM 41.1500 -95.0233 261° West 436 502 30,300 -2,162 Descending Minneapolis Center
Sat 10:57:01 AM 41.1431 -95.1506 266° West 435 501 28,700 -1,935 Descending Minneapolis Center
Sat 10:57:14 AM 41.1297 -95.1817 240° Southwest 436 502 28,300 -2,000 Descending Minneapolis Center
Sat 10:57:43 AM 41.1278 -95.2578 268° West 435 501 27,300 -1,935 Descending Minneapolis Center
Sat 10:58:16 AM 41.1106 -95.3400 254° West 436 502 26,300 -2,361 Descending Minneapolis Center
Sat 10:58:44 AM 41.1042 -95.4269 264° West 432 497 24,900 -2,381 Descending Minneapolis Center
Sat 10:59:19 AM 41.0897 -95.4978 255° West 435 501 23,800 -2,333 Descending Minneapolis Center
Sat 10:59:38 AM 41.0864 -95.5619 266° West 439 505 22,800 -2,516 Descending Minneapolis Center
Sat 11:00:21 AM 41.0694 -95.6581 257° West 436 502 21,200 -2,656 Descending Minneapolis Center
Sat 11:00:39 AM 41.0619 -95.7253 262° West 416 479 20,100 -2,419 Descending Minneapolis Center
Sat 11:01:23 AM 41.0486 -95.8083 258° West 422 486 18,700 -2,500 Descending Minneapolis Center
Sat 11:01:39 AM 41.0403 -95.8689 260° West 400 460 17,600 -2,419 Descending Minneapolis Center
Sat 11:02:25 AM 41.0306 -95.9522 261° West 401 461 16,200 -2,361 Descending Minneapolis Center
Sat 11:02:40 AM 41.0203 -96.0092 257° West 386 444 15,200 -2,903 Descending Minneapolis Center
Sat 11:03:27 AM 41.0078 -96.1186 261° West 384 442 13,200 -2,656 Descending Minneapolis Center
Sat 11:03:41 AM 40.9936 -96.1475 237° Southwest 370 426 12,500 -2,419 Descending Minneapolis Center
Sat 11:04:29 AM 40.9481 -96.2231 231° Southwest 360 414 10,700 -2,073 Descending Minneapolis Center
Sat 11:05:31 AM 40.8850 -96.3114 227° Southwest 342 394 8,700 -1,872 Descending Minneapolis Center
Sat 11:06:34 AM 40.8269 -96.3894 226° Southwest 310 357 6,800 -1,824 Descending Minneapolis Center
Sat 11:07:36 AM 40.7722 -96.4639 226° Southwest 292 336 4,900 -1,355 Descending Minneapolis Center
Sat 11:08:38 AM 40.7194 -96.5369 226° Southwest 284 327 4,000 -878 Descending Minneapolis Center
Sat 11:09:39 AM 40.7028 -96.6142 254° West 204 235 3,100 -496 Descending Minneapolis Center
Sat 11:10:39 AM 40.7431 -96.6594 320° Northwest 186 214 3,000 -52 Descending Minneapolis Center
Sat 11:11:34 AM 40.7783 -96.6889 328° Northwest 144 166 3,000 -92 Level Minneapolis Center
Sat 11:11:44 AM 40.7950 -96.7058 322° Northwest 196 226 2,900 -917 Descending Minneapolis Center
Sat 11:12:46 AM 40.8228 -96.7294 327° Northwest 158 182 1,900 -629 Descending Minneapolis Center
Sat 11:13:48 AM 40.8517 -96.7569 324° Northwest 147 169 1,600 -290 Descending Minneapolis Center

Login

Don't have an account? Register now (free) for customized features, flight alerts, and more!